Scandinavia, WI

5:43 PM CST on December 27, 2014 (GMT -0600)
WB9GBG | Change Station
CLOSE
Current Station
Personal Weather Station
Location: Iola, WI
Elevation: 1027 ft
Nearby Weather Stations

Elev 1027 ft 44.51 °N, 89.14 °W | Updated 6 seconds ago

Overcast
Overcast
29.7 °F
Feels Like 30 °F
N
0.0
Wind Variable Wind from NW
Gusts 0.0 mph

Today
High -- | Low -- °F
--% Chance of Precip.
Yesterday
High -- | Low -- °F
Precip. -- in
7:32 AM 4:23 PM
Waxing Crescent, 41% visible
Pressure 30.02 in
Visibility 10.0 miles
Clouds Overcast 1700 ft
Windchill 30 °F
Dew Point 27 °F
Humidity 89%
Rainfall 0.14 in
Snow Depth Not available.
UV 0 out of 12
Pollen .10 out of 12
Air Quality Not available.
Flu Activity Not available.
METAR KPCZ 272335Z AUTO 29010G19KT 10SM OVC017 00/M03 A3002 RMK AO2 T00031029

More Conditions Fewer Conditions

Pressure 30.02 in
Visibility 10.0 miles
Clouds Overcast 1700 ft
Windchill 30 °F
Dew Point 27 °F
Humidity 89%
Rainfall 0.14 in
Snow Depth Not available.
UV 0 out of 12
Pollen .10 out of 12
Air Quality Not available.
Flu Activity Not available.
METAR KPCZ 272335Z AUTO 29010G19KT 10SM OVC017 00/M03 A3002 RMK AO2 T00031029

More Conditions Fewer Conditions

10-Day Weather Forecast

Almanac

Astronomy

Dec. 27, 2014 Rise Set
Actual Time
Civil Twilight
Nautical Twilight
Astronomical Twilight
Moon
Length of Visible Light
Length of Day
Tomorrow will be .
, % of the Moon is Illuminated

Today's Extremes

State Highs State Lows

Community

WunderPhotos

Upload Photos

1,781,110 photos uploaded!

WunderBlogs® & News

Nearby

Air Quality

  Air Quality AQ Index Pollutant
Not available.

Snow Depth

Station Depth Elevation

Earthquake Activity

City Distance Mag. Time & Date
Minimum magnitude displayed is 2.5.

Coastal Water Temperatures

Place Temperature

Nearby Weather Stations